ACT        NSW        VIC        QLD        SA        WA        TAS        NT        INFO        CALC            by VK5ZD

Past Date/Time: (dd/mm/yyyy hh:mm or blank for current data)    

  Atmospheric Gas Attenuation - ITU Rec 676-11   --------------- dB/100km ---------------
WA Stations Date Time Temp RH % AH g/m3 Dew Point Wind Direction Speed kph Gust kph Barometer mB Rainfall Since 9am 24GHz 47GHz 76GHz 122GHz 134GHz 241GHz
Albany Airport 03/05 02:20 12.1 97 10.4 11.6 4 7 1024.5 6.2 23.5 29.9 48.9 128.5 126.9 437.7
Badgingarra 03/05 02:20 8.9 76 6.66 4.9 11 11 1013.1 0 15.7 24.1 34.3 89.8 78.4 267.9
Barimunya 03/05 02:20 17.2 25 3.66 -3 24 28 1013.1 0 9.0 18.0 21.0 54.1 37.5 125.0
Barrow Island 03/05 02:20 23.3 83 17.35 20.2 9 11 1012.2 0 37.6 37.7 71.1 187.9 204.2 709.1
Bedout Island 03/05 02:20 26.7 54 13.67 16.6 35 39 1013.1 0 29.6 30.0 52.6 138.7 144.8 502.3
Bickley 03/05 02:20 9.3 88 7.91 7.4 11 15 1013.1 0 18.3 26.1 39.2 102.9 94.7 325.1
Boolgeeda 03/05 02:20 20.8 34 6.16 4.7 9 9 1014.6 0 14.1 20.6 28.0 73.1 62.1 211.9
Bridgetown 03/05 02:20 11 97 9.71 10.5 0 0 1025.4 0.2 22.1 29.1 46.6 122.3 118.7 409.1
Broome 03/05 02:20 27.5 44 11.64 14.2 20 26 1011.9 0 25.3 26.6 44.2 116.5 117.8 408.1
Bunbury 03/05 02:20 9.5 100 9.1 9.6 6 6 1025.7 0 20.9 28.5 44.8 117.5 112.3 386.2
Busselton Airport 03/05 02:20 11.7 100 10.46 11.7 0 0 1025.6 0.4 23.7 30.2 49.5 130.0 128.5 443.4
Cape Leeuwin 03/05 02:20 15.5 86 11.37 13.2 32 35 1025.5 2.8 25.4 30.5 51.0 134.2 135.1 466.9
Cape Naturaliste 03/05 02:20 12.7 94 10.46 11.8 13 15 1025.3 0 23.6 29.9 48.8 128.3 126.8 437.6
Carnarvon 03/05 02:20 14.9 37 4.72 0.4 24 28 1017.6 0 11.3 20.0 25.2 65.3 50.3 169.9
Christmas Creek 03/05 02:20 18.7 24 3.84 -2 11 13 1018 0 9.4 18.1 21.3 55.0 38.8 129.8
Christmas Island 03/05 02:20 25.8 90 21.67 24 15 20 1009.6 0 46.6 44.7 89.1 235.8 263.9 916.8
Cocos Island 03/05 02:20 27 94 24.19 25.9 22 28 1010.5 2.6 51.8 49.2 100.4 266.0 301.3 1046.9
Collie East 03/05 02:20 8.9 96 8.41 8.3 0 0 1013.1 0 19.4 27.0 41.5 109.0 102.2 351.1
Coondewanna 03/05 02:20 16.8 25 3.57 -3.3 15 20 1013.1 0 8.8 17.9 20.8 53.6 36.7 122.3
Cunderdin Airport 03/05 02:20 10.7 78 7.66 7 9 9 1024.8 0 17.7 25.7 38.0 99.5 90.6 310.5
Curtin 03/05 02:20 23.3 83 17.35 20.2 13 15 1010.2 0 37.6 37.6 70.9 187.6 204.0 708.1
Dalwallinu 03/05 02:20 7.3 81 6.4 4.3 11 13 1024 0 15.2 24.6 34.4 89.9 77.3 263.6
Dwellingup 03/05 02:20 6 95 6.9 5.3 13 13 1025.4 0 16.3 25.8 37.1 97.1 85.6 292.5
Eliwana Airport 03/05 02:20 21.2 35 6.49 5.3 7 9 1013.1 0 14.8 20.9 28.9 75.5 65.3 223.3
Esperance 03/05 02:20 14.1 86 10.44 11.8 15 19 1020.8 4.4 23.5 29.2 47.6 125.3 123.8 427.2
Esperance Airport 03/05 02:20 12.5 97 10.67 12 13 15 1021.2 4.6 24.1 30.1 49.7 130.6 129.8 447.9
Eucla 03/05 02:20 9.2 91 8.13 7.8 15 22 1017.1 0.2 18.8 26.6 40.4 105.9 98.2 337.2
Fitzroy Crossing 03/05 02:20 21.3 68 12.67 15.2 1010.9 0 27.8 30.1 52.0 137.0 141.2 489.2
Forrest 03/05 02:20 7.9 87 7.15 5.9 17 19 1018.9 0 16.7 25.4 37.0 96.8 86.4 295.8
Fortescue Dave Forrest 03/05 02:20 17.5 31 4.62 0.4 17 20 1017.2 0 11.0 19.3 24.1 62.4 47.6 160.8
Garden Island 03/05 02:20 13.5 84 9.83 10.9 15 15 1025.6 0 22.2 28.5 45.6 119.8 116.6 402.0
Geraldton Airport 03/05 02:20 9.3 74 6.65 4.9 15 15 1023.2 0 15.6 24.4 34.5 90.2 78.6 268.3
Gerangamete (Cfa) 03/05 04:10 17.8 70 10.62 12.3 20 28 1013.1 1.6 23.7 28.0 45.8 120.5 119.7 413.4
Giles* 03/05 03:50 10.8 37 3.66 -3.3 20 24 1017.8 0 9.2 19.4 22.8 58.8 40.7 135.6
Gingin Airport 03/05 02:20 3.6 92 5.7 2.4 0 0 1025.4 0 13.8 24.5 33.2 86.5 71.5 242.7
Golden Grove 03/05 02:20 9 65 5.73 2.8 7 7 1013.1 0 13.7 22.6 30.7 80.0 66.4 225.6
Gooseberry Hill 03/05 02:20 12.3 76 8.25 8.2 13 15 1013.1 0 18.9 25.8 39.1 102.6 95.6 328.6
Gudai-Darri Mine 03/05 02:20 18.7 24 3.84 -1.9 24 28 1013.1 0 9.4 17.9 21.1 54.6 38.6 129.3
Halls Creek 03/05 03:50 17.7 74 11.16 13 0 0 1011.1 0 24.9 28.8 48.0 126.4 126.9 438.8
Hopetoun North 03/05 02:20 14.1 92 11.17 12.9 20 28 1021.9 15.6 25.1 30.5 50.9 133.9 134.3 464.0
Iron Bridge Mine 03/05 02:20 23.3 27 5.64 3.2 24 28 1013.1 0 13.0 19.3 25.5 66.3 54.6 186.1
Jacup 03/05 02:20 11.5 97 10.02 11 9 11 1023.2 1.2 22.7 29.4 47.5 124.9 122.2 421.4
Jandakot 03/05 02:20 6.1 93 6.8 5.1 0 0 1025.4 0 16.1 25.6 36.7 95.8 84.1 287.2
Kalgoorlie-Boulder 03/05 02:20 7.3 85 6.72 4.9 7 9 1022.6 0 15.8 25.0 35.7 93.2 81.5 278.4
Kalumburu 03/05 03:50 21.6 97 18.4 21.1 0 0 1010.5 0 40.1 40.4 77.6 205.3 225.2 781.8
Karijini North 03/05 02:20 20.1 23 4 -1.7 33 39 1015.7 0 9.7 17.9 21.4 55.2 39.7 133.1
Karnet 02/05 15:00 15.2 54 7.01 6 11 1013.1 0 16.1 23.0 33.0 86.4 76.6 262.4
Karratha 03/05 02:20 24.2 86 18.92 21.7 6 6 1012.9 0 40.9 40.3 77.6 205.3 225.9 784.5
Katanning Rs 03/05 02:20 11.2 93 9.43 10.1 11 13 1024.6 0 21.5 28.5 45.2 118.6 114.4 393.8
Koolan Island / Koolan Central 03/05 02:19 27.3 63 16.49 19.8 17 19 1013.1 0 35.4 34.5 63.8 168.5 181.6 630.9
Kununurra Airport 03/05 03:50 21.7 91 17.36 20.2 4 6 1010.6 0 37.8 38.4 72.5 191.8 208.6 724.0
Lake Grace 03/05 02:20 11 90 9.01 9.4 9 13 1024.1 0 20.6 27.8 43.5 114.1 108.7 373.9
Lancelin (Defence) 03/05 02:20 10.9 80 7.96 7.6 9 9 1024.8 0 18.3 26.1 39.2 102.5 94.4 323.9
Laverton 03/05 02:20 7.3 100 7.9 7.3 6 7 1022 0 18.4 27.0 40.6 106.4 97.8 335.5
Learmonth 03/05 02:20 19.1 42 6.88 5.9 11 11 1013.3 0 15.7 21.9 31.0 81.1 71.5 244.8
Legendre Island 03/05 02:20 27.9 65 17.58 20.9 6 7 1012.8 0 37.7 36.1 67.9 179.7 195.5 679.3
Leinster 03/05 02:20 9.2 72 6.43 4.4 9 9 1020.9 0 15.1 24.0 33.6 87.7 75.7 258.1
Leonora Airport 03/05 02:20 7.6 77 6.21 3.8 0 0 1022.3 0 14.7 24.1 33.5 87.3 74.4 253.4
Lombadina 03/05 02:20 25 79 18.19 21.1 9 11 1013.1 0 39.2 38.5 73.4 194.1 212.4 737.6
Mandora 03/05 02:20 22.2 31 6.09 4.3 11 15 1013.3 0 13.9 20.1 27.3 71.1 60.2 205.4
Mandurah 03/05 02:20 11.9 86 9.11 9.6 7 7 1025.5 0 20.8 27.8 43.5 114.0 108.9 374.9
Manjimup 03/05 02:20 11.8 99 10.42 11.6 9 11 1025.5 1.4 23.6 30.1 49.2 129.4 127.8 440.7
Marble Bar 03/05 02:20 21.5 29 5.47 2.7 11 15 1015.1 0 12.7 19.5 25.6 66.5 54.1 184.1
Mardie 03/05 02:20 23.1 84 17.36 20.2 9 9 1012.6 0 37.7 37.8 71.3 188.5 205.0 711.7
Meekatharra 03/05 02:20 10.5 47 4.56 -0.3 11 11 1020.3 0 11.1 20.8 26.1 67.7 51.4 173.0
Millendon (Swan Valley) 03/05 02:20 5.5 95 6.68 4.7 0 0 1025.3 0 15.8 25.6 36.4 95.2 83.1 283.6
Morawa Airport 03/05 02:20 8.6 75 6.45 4.4 6 7 1023.6 0 15.2 24.3 34.0 88.9 76.7 261.6
Mount Keith 03/05 02:20 8.9 64 5.61 2.5 6 7 1013.1 0 13.4 22.5 30.2 78.9 65.0 220.6
Mount Magnet Airport 03/05 02:20 9.7 63 5.81 3 7 9 1021.7 0 13.8 22.9 31.0 80.9 67.3 228.9
Munglinup West 03/05 02:20 11.8 97 10.21 11.3 15 17 1021.9 6.2 23.1 29.6 48.1 126.5 124.4 428.9
Newdegate 03/05 02:20 9.9 88 8.22 8.1 17 20 1023.3 0 19.0 26.8 40.7 106.6 99.1 340.2
Newman Airport 03/05 02:20 14.9 25 3.19 -4.9 9 11 1017.8 0 8.1 17.9 20.2 51.9 33.7 111.5
Norseman Airport 03/05 02:20 10.6 94 9.18 9.7 13 19 1021.8 1.8 21.0 28.2 44.3 116.3 111.4 383.6
North Island 03/05 02:20 17.8 52 7.89 7.8 35 44 1022.5 0 17.9 24.0 35.6 93.1 85.4 293.3
Onslow Airport 03/05 02:20 23.7 97 20.75 23.2 7 7 1012.9 0 44.8 44.1 87.1 230.6 256.9 892.0
Paraburdoo 03/05 02:20 20.9 25 4.55 0.2 17 20 1014.6 0 10.8 18.4 22.8 59.1 44.9 151.5
Pearce 03/05 02:20 5.8 86 6.16 3.6 0 0 1025 0 14.7 24.6 34.1 89.1 75.6 257.5
Perth 03/05 02:20 7.7 97 7.87 7.3 0 0 1025.4 0 18.3 27.0 40.4 105.9 97.2 333.2
Perth Airport 03/05 02:20 6 92 6.68 4.8 9 9 1025.3 0 15.8 25.4 36.2 94.6 82.6 281.8
Port Hedland 03/05 02:20 22.1 45 8.78 9.6 7 7 1013.5 0 19.6 23.9 36.6 95.9 90.7 312.6
Portable Btsa (Dfes) 03/05 02:10 15.1 35 4.52 -0.1 11 13 1013.1 0 10.9 19.5 24.3 63.0 47.8 161.0
Portable Btsb (Dfes) 03/05 02:10 10 79 7.43 6.6 7 7 1013.1 0 17.3 25.1 36.9 96.7 87.4 299.6
Portable Btsd (Dfes) 03/05 02:10 6.6 90 6.8 5.1 9 11 1013.1 0 16.0 25.0 35.9 94.0 82.7 282.5
Portable Btsf (Dfes) 03/05 02:00 11.7 51 5.33 1.9 17 19 1013.1 0 12.7 21.4 28.2 73.4 59.3 201.2
Portable Btsh (Dfes) 03/05 02:10 10 88 8.27 8.2 17 20 1013.1 2.4 19.1 26.5 40.4 105.9 98.8 339.4
Portable Btsj (Dfes) 03/05 02:10 6.1 95 6.94 5.3 0 0 1013.1 0 16.4 25.4 36.7 96.1 85.1 291.0
Portable Btsk (Dfes) 03/05 02:10 15.6 36 4.79 0.6 6 7 1013.1 0 11.4 19.8 25.1 65.1 50.5 170.5
Portable Btsl (Dfes) 03/05 02:10 11.2 90 9.12 9.7 22 28 1013.1 0.6 20.8 27.5 43.3 113.8 108.9 375.0
Portable Btsm (Dfes) 03/05 02:10 12.5 29 3.19 -4.8 0 2 1013.1 0 8.2 18.3 20.6 53.2 34.6 114.2
Portable Btsn (Dfes) 03/05 02:10 9.5 62 5.65 2.6 9 9 1013.1 0 13.5 22.4 30.2 78.7 65.0 220.7
Portable Btso (Dfes) 03/05 02:10 9.1 93 8.25 8 0 2 1013.1 0 19.1 26.7 40.7 106.9 99.7 342.3
Red Rocks Point 03/05 02:20 10.3 96 9.2 9.7 17 22 1017.3 6 21.1 28.1 44.4 116.5 111.8 384.7
Rocky Gully South 03/05 02:20 11.6 96 9.98 11 7 11 1013.1 1.8 22.7 28.9 46.8 123.0 120.5 415.5
Roebourne Airport 03/05 02:20 24.6 50 11.25 13.5 17 19 1013.4 0 24.6 26.9 44.4 117.0 117.5 406.6
Rottnest Island 03/05 02:20 14.5 73 9.08 9.7 13 13 1025 0 20.6 26.9 41.9 109.9 104.9 361.1
Salmon Gums Rs 03/05 02:20 11.2 99 10.04 11 13 15 1013.1 3.2 22.8 29.1 47.3 124.4 122.0 420.7
Shannon 03/05 02:20 12 100 10.66 12.2 0 0 1013.1 4 24.1 30.0 49.5 130.4 129.7 447.6
Shark Bay Airport 03/05 02:20 14.6 49 6.13 4 19 22 1019.1 0 14.3 22.1 30.3 78.9 66.9 228.2
Solomon Airport 03/05 02:20 20 30 5.18 2.1 15 17 1015.5 0 12.1 19.4 25.1 65.2 52.0 176.6
Southern Cross Airport 03/05 02:20 5.8 93 6.67 4.8 0 0 1023.7 0 15.8 25.4 36.2 94.6 82.5 281.6
Swanbourne 03/05 02:20 10.5 100 9.7 10.5 9 9 1013.1 0 22.1 28.8 46.2 121.5 118.2 407.3
Telfer 03/05 02:20 18.9 23 3.73 -2.7 24 28 1015.5 0 9.1 17.8 20.8 53.8 37.5 125.3
Thevenard Island 03/05 02:00 23.6 80 17.01 19.9 7 9 1012.6 0 36.9 36.9 69.2 183.0 198.4 688.7
Troughton Island 03/05 03:50 26.6 85 21.4 23.9 0 0 1010.6 0 45.9 43.8 86.8 229.9 256.9 892.6
Truscott 03/05 03:50 24.1 97 21.22 23.6 7 7 1010.1 0 45.8 44.7 88.9 235.2 262.7 912.4
Walpole North 03/05 02:20 13.1 95 10.84 12.3 9 11 1024.8 5.2 24.4 30.4 50.2 132.0 131.6 454.3
Wandering 03/05 02:20 4 94 5.98 3.1 6 6 1013.1 0 14.4 24.4 33.7 88.0 74.2 252.2
West Angelas 03/05 02:20 15.2 32 4.15 -1.3 9 11 1018.8 0 10.1 19.2 23.2 60.1 43.9 147.3
West Musgrave Airport 03/05 02:20 8.2 47 3.94 -2.4 11 11 1013.1 0.2 9.9 20.2 24.3 63.1 45.1 150.9
Wiluna Airport 03/05 02:20 9.6 55 5.04 1 7 9 1020.8 0 12.2 21.7 28.1 73.1 57.8 195.4
Witchcliffe West 03/05 02:20 13.3 100 11.55 13.5 7 9 1025.6 1 25.9 31.6 53.3 140.3 141.8 489.8
Wyndham Airport 03/05 03:50 23.8 87 18.71 21.5 0 0 1010.2 0 40.5 39.9 76.8 203.3 223.4 775.8
Yampi Sound (Defence) 03/05 02:20 21.6 93 17.64 20.4 4 4 1014.5 0 38.4 39.1 74.2 196.2 213.8 742.1

Last Refresh: 03-May-2026 04:00:43

Bureau of Meteorology